createdAt,value
2022-10-29T00:04:14.576Z,19.67
2022-10-29T00:09:16.138Z,17.25
2022-10-29T00:14:17.857Z,17.08
2022-10-29T00:19:19.639Z,17.75
2022-10-29T00:24:21.177Z,16.50
2022-10-29T00:29:22.875Z,19.33
2022-10-29T00:34:24.464Z,16.80
2022-10-29T00:39:26.024Z,17.27
2022-10-29T00:44:30.353Z,17.63
2022-10-29T00:49:34.579Z,16.80
2022-10-29T00:54:40.853Z,17.75
2022-10-29T00:59:43.636Z,17.40
2022-10-29T01:04:46.358Z,18.55
2022-10-29T01:09:49.283Z,17.83
2022-10-29T01:15:21.859Z,17.10
2022-10-29T01:20:56.012Z,15.75
2022-10-29T01:26:19.561Z,16.88
2022-10-29T01:31:31.906Z,15.90
2022-10-29T01:37:06.870Z,15.63
2022-10-29T01:42:08.402Z,15.85
2022-10-29T01:47:36.357Z,17.25
2022-10-29T01:52:39.129Z,14.43
2022-10-29T01:57:40.648Z,14.35
2022-10-29T02:03:33.813Z,16.88
2022-10-29T02:08:50.090Z,16.23
2022-10-29T02:14:04.530Z,15.88
2022-10-29T02:19:06.342Z,17.25
2022-10-29T02:24:08.314Z,17.38
2022-10-29T02:29:09.902Z,15.68
2022-10-29T02:34:11.546Z,16.30
2022-10-29T02:39:13.090Z,18.77
2022-10-29T02:44:14.610Z,16.63
2022-10-29T02:49:16.167Z,17.10
2022-10-29T02:54:17.894Z,17.80
2022-10-29T02:59:19.435Z,16.85
2022-10-29T03:04:20.992Z,17.55
2022-10-29T03:09:22.571Z,16.67
2022-10-29T03:14:24.093Z,16.75
2022-10-29T03:19:25.756Z,17.65
2022-10-29T03:24:27.343Z,18.20
2022-10-29T03:29:28.855Z,17.33
2022-10-29T03:34:30.500Z,17.85
2022-10-29T03:39:32.129Z,18.83
2022-10-29T03:44:33.747Z,18.73
2022-10-29T03:49:35.322Z,16.80
2022-10-29T03:54:36.854Z,17.70
2022-10-29T03:59:38.544Z,18.30
2022-10-29T04:04:40.167Z,19.83
2022-10-29T04:09:41.797Z,17.30
2022-10-29T04:14:45.677Z,18.25
2022-10-29T04:19:47.460Z,18.83
2022-10-29T04:27:07.840Z,18.88
2022-10-29T04:30:10.876Z,20.05
2022-10-29T04:35:12.596Z,19.40
2022-10-29T04:40:14.898Z,17.73
2022-10-29T04:45:18.108Z,19.70
2022-10-29T04:50:19.649Z,19.05
2022-10-29T04:55:21.242Z,18.58
2022-10-29T05:00:23.754Z,19.50
2022-10-29T05:05:25.598Z,19.38
2022-10-29T05:10:28.813Z,18.70
2022-10-29T05:15:30.791Z,19.05
2022-10-29T05:20:33.526Z,18.35
2022-10-29T05:25:37.077Z,19.85
2022-10-29T05:30:39.349Z,19.98
2022-10-29T05:35:41.296Z,19.73
2022-10-29T05:40:45.244Z,22.60
2022-10-29T05:45:47.402Z,21.63
2022-10-29T05:50:49.078Z,21.67
2022-10-29T05:55:50.638Z,19.70
2022-10-29T06:00:52.192Z,19.45
2022-10-29T06:05:53.754Z,20.50
2022-10-29T06:10:55.437Z,19.65
2022-10-29T06:15:59.017Z,19.65
2022-10-29T06:21:01.410Z,20.42
2022-10-29T06:26:03.554Z,21.15
2022-10-29T06:31:05.524Z,19.08
2022-10-29T06:36:07.447Z,20.70
2022-10-29T06:41:09.775Z,18.40
2022-10-29T06:46:11.474Z,20.60
2022-10-29T06:51:13.360Z,19.73
2022-10-29T06:56:15.693Z,22.15
2022-10-29T07:01:17.461Z,20.02
2022-10-29T07:06:19.665Z,21.20
2022-10-29T07:11:21.255Z,22.80
2022-10-29T07:16:22.828Z,25.83
2022-10-29T07:21:24.538Z,24.35
2022-10-29T07:26:26.182Z,25.98
2022-10-29T07:31:30.204Z,25.80
2022-10-29T07:36:31.821Z,25.35
2022-10-29T07:41:33.696Z,24.73
2022-10-29T07:46:35.432Z,23.65
2022-10-29T07:51:36.997Z,22.75
2022-10-29T07:56:41.232Z,22.65
2022-10-29T08:06:47.574Z,21.55
2022-10-29T08:11:49.227Z,20.95
2022-10-29T08:16:54.588Z,20.63
2022-10-29T08:21:56.827Z,18.95
2022-10-29T08:26:58.583Z,19.50
2022-10-29T08:32:00.263Z,18.98
2022-10-29T08:37:02.136Z,18.20
2022-10-29T08:42:42.333Z,18.00
2022-10-29T08:47:49.884Z,19.05
2022-10-29T08:52:58.952Z,17.38
2022-10-29T08:58:33.330Z,18.77
2022-10-29T09:03:35.037Z,18.02
2022-10-29T09:09:01.215Z,18.95
2022-10-29T09:14:21.346Z,17.23
2022-10-29T09:20:12.291Z,17.40
2022-10-29T09:25:22.729Z,17.13
2022-10-29T09:30:27.236Z,18.02
2022-10-29T09:35:55.720Z,18.30
2022-10-29T09:40:58.951Z,16.08
2022-10-29T09:46:00.796Z,16.33
2022-10-29T09:51:15.040Z,15.38
2022-10-29T09:56:16.851Z,16.27
2022-10-29T10:01:18.567Z,15.07
2022-10-29T10:06:20.229Z,14.57
2022-10-29T10:11:23.002Z,14.20
2022-10-29T10:16:27.669Z,13.05
2022-10-29T10:21:32.139Z,13.30
2022-10-29T10:50:22.839Z,13.55
2022-10-29T10:55:31.620Z,12.55
2022-10-29T11:00:41.373Z,12.15
2022-10-29T11:06:12.422Z,13.27
2022-10-29T11:11:21.746Z,12.55
2022-10-29T11:16:33.388Z,12.85
2022-10-29T11:21:46.948Z,11.27
2022-10-29T11:26:53.488Z,11.98
2022-10-29T11:32:07.253Z,11.73
2022-10-29T11:37:17.550Z,11.90
2022-10-29T11:42:19.302Z,12.07
2022-10-29T11:47:58.759Z,11.75
2022-10-29T11:53:32.760Z,12.05
2022-10-29T11:59:00.411Z,12.32
2022-10-29T12:04:21.120Z,12.18
2022-10-29T12:09:46.266Z,12.38
2022-10-29T12:15:04.366Z,12.32
2022-10-29T12:20:41.504Z,13.20
2022-10-29T12:25:58.028Z,12.88
2022-10-29T12:30:59.559Z,13.13
2022-10-29T12:36:09.248Z,13.32
2022-10-29T12:41:34.545Z,14.00
2022-10-29T12:46:36.035Z,14.10
2022-10-29T12:51:51.415Z,14.43
2022-10-29T12:56:53.515Z,13.27
2022-10-29T13:02:12.305Z,13.32
2022-10-29T13:12:55.106Z,13.18
2022-10-29T13:18:02.397Z,14.80
2022-10-29T13:23:24.185Z,15.13
2022-10-29T13:28:25.788Z,13.88
2022-10-29T13:33:27.341Z,14.95
2022-10-29T13:39:04.523Z,15.25
2022-10-29T13:44:14.148Z,15.07
2022-10-29T13:49:21.184Z,14.02
2022-10-29T13:54:31.289Z,14.05
2022-10-29T13:59:48.548Z,15.00
2022-10-29T14:04:56.466Z,15.70
2022-10-29T14:10:07.439Z,16.92
2022-10-29T14:15:12.679Z,15.90
2022-10-29T14:20:22.471Z,16.55
2022-10-29T14:25:36.053Z,19.30
2022-10-29T14:30:37.691Z,19.05
2022-10-29T14:35:39.622Z,20.67
2022-10-29T14:40:44.719Z,19.75
2022-10-29T14:45:46.729Z,20.40
2022-10-29T14:50:51.430Z,20.88
2022-10-29T14:55:53.271Z,22.27
2022-10-29T15:01:09.934Z,22.33
2022-10-29T15:06:16.240Z,20.02
2022-10-29T15:11:37.571Z,19.52
2022-10-29T15:16:42.361Z,21.85
2022-10-29T15:21:45.009Z,22.30
2022-10-29T15:26:56.288Z,22.33
2022-10-29T15:31:58.019Z,22.25
2022-10-29T15:37:19.716Z,22.75
2022-10-29T15:42:23.694Z,23.33
2022-10-29T15:47:29.107Z,23.63
2022-10-29T15:52:39.177Z,23.75
2022-10-29T15:57:41.958Z,24.10
2022-10-29T16:02:43.510Z,22.75
2022-10-29T16:07:47.030Z,24.85
2022-10-29T16:12:49.865Z,23.33
2022-10-29T16:17:51.454Z,25.75
2022-10-29T16:22:53.231Z,23.05
2022-10-29T16:27:55.620Z,24.42
2022-10-29T16:32:57.701Z,25.88
2022-10-29T16:37:59.407Z,27.63
2022-10-29T16:43:01.120Z,25.60
2022-10-29T16:48:03.592Z,24.88
2022-10-29T16:53:07.464Z,26.55
2022-10-29T16:58:12.107Z,26.00
2022-10-29T17:03:15.746Z,29.10
2022-10-29T17:08:17.670Z,30.42
2022-10-29T17:13:19.474Z,30.30
2022-10-29T17:18:23.318Z,31.20
2022-10-29T17:23:25.149Z,33.17
2022-10-29T17:28:27.867Z,31.48
2022-10-29T17:33:29.699Z,30.30
2022-10-29T17:38:31.759Z,30.48
2022-10-29T17:43:33.772Z,44.28
2022-10-29T17:48:35.715Z,30.17
2022-10-29T17:53:39.485Z,36.78
2022-10-29T17:58:41.760Z,34.88
2022-10-29T18:03:44.132Z,41.08
2022-10-29T18:08:46.057Z,37.88
2022-10-29T18:13:49.470Z,33.28
2022-10-29T18:19:01.074Z,33.22
2022-10-29T18:24:04.513Z,31.90
2022-10-29T18:29:12.126Z,33.55
2022-10-29T18:34:15.345Z,34.33
2022-10-29T18:39:17.275Z,33.70
2022-10-29T18:44:19.232Z,32.58
2022-10-29T18:49:21.456Z,33.60
2022-10-29T18:54:23.595Z,32.00
2022-10-29T18:59:25.508Z,31.92
2022-10-29T19:04:27.457Z,41.92
2022-10-29T19:09:30.211Z,37.80
2022-10-29T19:14:32.035Z,33.75
2022-10-29T19:19:34.249Z,35.00
2022-10-29T19:24:36.036Z,33.67
2022-10-29T19:29:37.938Z,34.70
2022-10-29T19:34:40.306Z,37.90
2022-10-29T19:39:47.546Z,36.22
2022-10-29T19:44:52.172Z,35.58
2022-10-29T19:49:57.600Z,36.22
2022-10-29T19:54:59.825Z,33.50
2022-10-29T20:00:01.665Z,33.88
2022-10-29T20:05:07.026Z,34.72
2022-10-29T20:10:09.056Z,33.30
2022-10-29T20:15:12.229Z,33.17
2022-10-29T20:20:16.991Z,50.60
2022-10-29T20:25:23.936Z,43.28
2022-10-29T20:30:26.047Z,36.47
2022-10-29T20:35:27.831Z,33.45
2022-10-29T20:40:29.686Z,32.00
2022-10-29T20:45:31.786Z,33.08
2022-10-29T20:50:33.719Z,32.00
2022-10-29T20:55:35.658Z,31.30
2022-10-29T21:00:38.694Z,35.78
2022-10-29T21:05:40.601Z,33.60
2022-10-29T21:10:42.366Z,33.65
2022-10-29T21:15:44.043Z,33.38
2022-10-29T21:20:45.857Z,31.42
2022-10-29T21:25:54.019Z,31.70
2022-10-29T21:30:55.803Z,31.75
2022-10-29T21:35:58.354Z,30.98
2022-10-29T21:41:02.234Z,34.03
2022-10-29T21:46:03.972Z,33.08
2022-10-29T21:51:08.300Z,30.27
2022-10-29T21:56:12.835Z,30.50
2022-10-29T22:01:16.562Z,36.47
2022-10-29T22:06:19.525Z,33.97
2022-10-29T22:11:22.339Z,30.15
2022-10-29T22:16:23.954Z,30.10
2022-10-29T22:21:26.422Z,28.05
2022-10-29T22:26:30.054Z,30.33
2022-10-29T22:31:31.581Z,31.63
2022-10-29T22:36:33.563Z,34.28
2022-10-29T22:41:35.250Z,29.08
2022-10-29T22:46:36.840Z,28.80
2022-10-29T22:51:38.966Z,29.17
2022-10-29T22:56:40.868Z,28.00
2022-10-29T23:01:45.337Z,28.92
2022-10-29T23:06:47.844Z,29.50
2022-10-29T23:11:49.433Z,29.60
2022-10-29T23:16:51.034Z,29.60
2022-10-29T23:21:52.995Z,29.17
2022-10-29T23:26:54.586Z,28.77
2022-10-29T23:31:56.182Z,29.52
2022-10-29T23:36:59.892Z,29.25
2022-10-29T23:42:02.847Z,28.50
2022-10-29T23:47:04.416Z,29.10
2022-10-29T23:52:06.026Z,27.95
2022-10-29T23:57:07.656Z,28.98
